Time;durP1;ratioP1;P1;durP2;ratioP2;P2;SDS_P1;SDS_P2;PMS_P1;PMS_P2;Temp;Humidity;BMP_temperature;BMP_pressure;BME280_temperature;BME280_humidity;BME280_pressure;Samples;Min_cycle;Max_cycle;Signal;HPM_P1;HPM_P2
2022/10/17 00:01:30;;;;;;;15.25;5.20;;;11.10;99.90;;;;;;5093754;28;20139;-58
2022/10/17 00:03:56;;;;;;;10.60;4.32;;;11.00;99.90;;;;;;5090464;28;20049;-60
2022/10/17 00:06:21;;;;;;;10.90;4.53;;;11.20;99.90;;;;;;5088998;28;20068;-59
2022/10/17 00:08:47;;;;;;;14.07;4.50;;;11.50;99.90;;;;;;5091687;28;20087;-58
2022/10/17 00:11:16;;;;;;;12.48;5.15;;;10.70;99.90;;;;;;5087686;28;20408;-58
2022/10/17 00:13:41;;;;;;;12.57;4.75;;;11.70;99.90;;;;;;5092748;28;20055;-59
2022/10/17 00:16:07;;;;;;;9.70;5.18;;;11.70;99.90;;;;;;5074657;28;20036;-58
2022/10/17 00:18:33;;;;;;;11.27;4.68;;;10.80;99.90;;;;;;5092573;28;20036;-60
2022/10/17 00:20:59;;;;;;;11.13;5.05;;;11.10;99.90;;;;;;5092901;28;20098;-58
2022/10/17 00:23:26;;;;;;;9.15;4.45;;;11.00;99.90;;;;;;5092832;28;20032;-57
2022/10/17 00:25:59;;;;;;;11.85;4.80;;;;;;;;;;5083081;28;20028;-58
2022/10/17 00:28:25;;;;;;;10.75;4.20;;;11.60;99.90;;;;;;5090935;28;20036;-57
2022/10/17 00:30:58;;;;;;;11.70;4.07;;;11.20;99.90;;;;;;5092342;28;20081;-57
2022/10/17 00:33:25;;;;;;;13.48;4.85;;;11.30;99.90;;;;;;5092675;28;20485;-58
2022/10/17 00:35:50;;;;;;;15.30;5.00;;;11.40;99.90;;;;;;5092763;28;20103;-57
2022/10/17 00:38:16;;;;;;;9.20;4.22;;;11.40;99.90;;;;;;5092206;28;20449;-57
2022/10/17 00:40:41;;;;;;;11.73;4.43;;;12.30;99.90;;;;;;5092253;28;20036;-58
2022/10/17 00:43:17;;;;;;;8.35;4.10;;;;;;;;;;5092629;28;20092;-57
2022/10/17 00:45:43;;;;;;;12.70;4.47;;;12.20;99.90;;;;;;5092270;28;20404;-56
2022/10/17 00:48:10;;;;;;;10.25;4.07;;;12.30;99.90;;;;;;5074252;28;20032;-59
2022/10/17 00:50:39;;;;;;;9.07;4.30;;;12.00;99.90;;;;;;5092149;28;20036;-60
2022/10/17 00:53:06;;;;;;;14.25;4.55;;;12.60;99.90;;;;;;5092312;28;20040;-58
2022/10/17 00:55:36;;;;;;;11.52;4.80;;;12.10;99.90;;;;;;5091793;28;20080;-58
2022/10/17 00:58:04;;;;;;;14.25;5.07;;;12.40;99.90;;;;;;5091776;28;20032;-58
2022/10/17 01:00:29;;;;;;;6.78;4.65;;;12.20;99.90;;;;;;5091150;28;20165;-58
2022/10/17 01:02:55;;;;;;;10.55;5.07;;;12.40;99.90;;;;;;5092157;28;20397;-58
2022/10/17 01:05:21;;;;;;;12.00;4.80;;;12.20;99.90;;;;;;5091630;28;20067;-57
2022/10/17 01:07:49;;;;;;;10.73;5.20;;;12.20;99.90;;;;;;5091045;28;20097;-59
2022/10/17 01:10:16;;;;;;;12.38;5.60;;;12.50;99.90;;;;;;5092312;28;20036;-58
2022/10/17 01:12:55;;;;;;;10.70;5.00;;;;;;;;;;5090627;28;20040;-56
2022/10/17 01:15:38;;;;;;;12.65;5.05;;;;;;;;;;5087375;28;20036;-57
2022/10/17 01:18:31;;;;;;;10.55;5.18;;;;;;;;;;5088339;28;20594;-55
2022/10/17 01:21:14;;;;;;;9.35;4.57;;;12.50;99.90;;;;;;5053156;28;20564;-57
2022/10/17 01:23:39;;;;;;;12.05;5.20;;;12.70;99.90;;;;;;5071877;28;20089;-59
2022/10/17 01:26:11;;;;;;;9.05;5.13;;;;;;;;;;5091846;28;20447;-57
2022/10/17 01:29:08;;;;;;;9.30;5.05;;;12.60;99.90;;;;;;5089105;28;20032;-58
2022/10/17 01:31:59;;;;;;;11.75;4.93;;;12.50;99.90;;;;;;5091556;28;20047;-57
2022/10/17 01:34:54;;;;;;;9.35;5.00;;;12.50;99.90;;;;;;5090529;28;20430;-56
2022/10/17 01:37:34;;;;;;;9.65;5.45;;;12.90;99.90;;;;;;5085588;28;20040;-55
2022/10/17 01:40:04;;;;;;;8.77;5.85;;;12.40;99.90;;;;;;5090590;28;20111;-57
2022/10/17 01:42:37;;;;;;;12.60;6.00;;;12.10;99.90;;;;;;5083315;28;20051;-58
2022/10/17 01:45:21;;;;;;;8.77;5.97;;;12.40;99.90;;;;;;5089972;28;20028;-58
2022/10/17 01:47:50;;;;;;;14.93;6.47;;;11.90;99.90;;;;;;5091027;28;20032;-58
2022/10/17 01:50:23;;;;;;;14.77;7.15;;;12.30;99.90;;;;;;5088816;28;20043;-59
2022/10/17 01:53:21;;;;;;;12.13;6.78;;;12.50;99.90;;;;;;5090330;28;20509;-59
2022/10/17 01:55:48;;;;;;;12.95;6.07;;;12.60;99.90;;;;;;5072370;28;20044;-59
2022/10/17 01:58:28;;;;;;;13.88;6.30;;;;;;;;;;5090954;28;20036;-59
2022/10/17 02:00:56;;;;;;;11.85;6.25;;;;;;;;;;5090706;28;20031;-58
2022/10/17 02:03:23;;;;;;;10.43;5.80;;;12.40;99.90;;;;;;5091082;28;20032;-58
2022/10/17 02:05:48;;;;;;;12.20;6.40;;;12.50;99.90;;;;;;5090644;28;20413;-59
2022/10/17 02:08:27;;;;;;;12.18;6.25;;;12.50;99.90;;;;;;5090245;28;20028;-58
2022/10/17 02:10:58;;;;;;;12.25;7.15;;;;;;;;;;5090390;28;20077;-59
2022/10/17 02:13:36;;;;;;;14.98;7.55;;;12.20;99.90;;;;;;5083933;28;20032;-58
2022/10/17 02:16:35;;;;;;;13.52;7.38;;;11.80;99.90;;;;;;5085081;28;20032;-56
2022/10/17 02:19:31;;;;;;;14.60;7.43;;;12.20;99.90;;;;;;5090227;28;20036;-59
2022/10/17 02:22:28;;;;;;;14.20;7.32;;;12.00;99.90;;;;;;5082935;28;20055;-58
2022/10/17 02:25:16;;;;;;;12.45;7.07;;;12.10;99.90;;;;;;5071966;28;20036;-57
2022/10/17 02:27:48;;;;;;;14.43;7.38;;;;;;;;;;5090406;28;20036;-58
2022/10/17 02:30:19;;;;;;;12.32;7.30;;;12.20;99.90;;;;;;5089735;28;20039;-58
2022/10/17 02:32:55;;;;;;;12.90;6.90;;;12.50;99.90;;;;;;5090809;28;20050;-56
2022/10/17 02:35:24;;;;;;;13.07;8.38;;;11.60;99.90;;;;;;5090041;28;20047;-59
2022/10/17 02:37:50;;;;;;;10.50;7.10;;;;;;;;;;5090059;28;20072;-54
2022/10/17 02:40:19;;;;;;;15.45;8.07;;;12.20;99.90;;;;;;5090645;28;20036;-58
2022/10/17 02:42:45;;;;;;;13.75;7.97;;;12.70;99.90;;;;;;5090314;28;20374;-59
2022/10/17 02:45:12;;;;;;;11.98;7.78;;;;;;;;;;5090207;28;20039;-58
2022/10/17 02:47:47;;;;;;;11.40;7.50;;;12.40;99.90;;;;;;5089816;28;20040;-58
2022/10/17 02:50:12;;;;;;;;;;;;;;;;;;5090691;28;20111;-57
2022/10/17 02:52:41;;;;;;;12.13;7.18;;;12.40;99.90;;;;;;5090527;28;19959;-58
2022/10/17 02:55:18;;;;;;;14.32;8.50;;;;;;;;;;5089983;28;20035;-57
2022/10/17 02:57:53;;;;;;;12.95;8.48;;;12.60;99.90;;;;;;5068548;28;20393;-57
2022/10/17 03:00:21;;;;;;;12.93;8.20;;;11.70;99.90;;;;;;5087577;28;20034;-59
2022/10/17 03:02:49;;;;;;;14.25;8.60;;;12.70;99.90;;;;;;5071712;28;20062;-59
2022/10/17 03:05:21;;;;;;;11.93;8.90;;;12.70;99.90;;;;;;5086524;28;20036;-59
2022/10/17 03:07:47;;;;;;;14.85;9.35;;;12.90;99.90;;;;;;5082285;28;20089;-59
2022/10/17 03:10:13;;;;;;;13.35;9.15;;;12.40;99.90;;;;;;5090127;28;20032;-58
2022/10/17 03:12:38;;;;;;;13.45;8.98;;;12.50;99.90;;;;;;5089354;28;20452;-57
2022/10/17 03:15:05;;;;;;;16.65;9.65;;;12.40;99.90;;;;;;5086827;28;20075;-58
2022/10/17 03:17:31;;;;;;;13.98;9.60;;;12.40;99.90;;;;;;5089284;28;20047;-58
2022/10/17 03:19:56;;;;;;;15.30;9.88;;;12.50;99.90;;;;;;5133719;22;20044;-62
2022/10/17 03:22:22;;;;;;;15.30;10.25;;;;;;;;;;5089750;28;20540;-62
2022/10/17 03:24:48;;;;;;;16.83;9.50;;;12.50;99.90;;;;;;5082294;28;20040;-61
2022/10/17 03:27:14;;;;;;;17.50;10.50;;;12.50;99.90;;;;;;5034450;28;20459;-60
2022/10/17 03:29:40;;;;;;;18.52;11.23;;;;;;;;;;5057492;28;20033;-61
2022/10/17 03:32:05;;;;;;;13.95;9.65;;;12.50;99.90;;;;;;5052198;28;20558;-61
2022/10/17 03:34:31;;;;;;;15.48;11.00;;;12.50;99.90;;;;;;5053794;28;20045;-61
2022/10/17 03:36:56;;;;;;;15.63;9.82;;;12.50;99.90;;;;;;5057039;28;20116;-61
2022/10/17 03:39:22;;;;;;;17.08;11.68;;;;;;;;;;5018680;28;20406;-61
2022/10/17 03:41:48;;;;;;;15.18;11.18;;;;;;;;;;5057634;28;20056;-61
2022/10/17 03:44:14;;;;;;;19.65;12.13;;;12.70;99.90;;;;;;5052117;28;20091;-61
2022/10/17 03:46:40;;;;;;;20.65;12.30;;;12.80;99.90;;;;;;5055670;28;20487;-61
2022/10/17 03:49:05;;;;;;;14.13;10.00;;;12.50;99.90;;;;;;5062761;28;20029;-61
2022/10/17 03:51:33;;;;;;;18.00;11.52;;;;;;;;;;5060491;28;20529;-61
2022/10/17 03:53:58;;;;;;;18.27;11.77;;;12.70;99.90;;;;;;5057492;28;20076;-61
2022/10/17 03:56:25;;;;;;;22.27;12.18;;;12.40;99.90;;;;;;5052562;28;20072;-61
2022/10/17 03:58:51;;;;;;;20.35;12.93;;;12.50;99.90;;;;;;5055257;28;20099;-61
2022/10/17 04:01:17;;;;;;;20.02;13.75;;;12.40;99.90;;;;;;5035647;28;20091;-61
2022/10/17 04:03:44;;;;;;;19.90;13.27;;;;;;;;;;5059637;28;20483;-61
2022/10/17 04:06:11;;;;;;;18.88;12.98;;;;;;;;;;5060524;28;20061;-61
2022/10/17 04:08:37;;;;;;;18.40;12.98;;;12.50;99.90;;;;;;5037742;28;20044;-61
2022/10/17 04:11:06;;;;;;;19.83;13.90;;;12.60;99.90;;;;;;5057625;28;20112;-61
2022/10/17 04:13:32;;;;;;;18.27;13.35;;;;;;;;;;5055702;28;20033;-61
2022/10/17 04:16:08;;;;;;;21.95;14.68;;;;;;;;;;5062003;28;20052;-61
2022/10/17 04:18:33;;;;;;;20.83;13.85;;;12.80;99.90;;;;;;5056439;28;20041;-61
2022/10/17 04:21:04;;;;;;;19.73;14.02;;;;;;;;;;5063679;28;20051;-61
2022/10/17 04:23:30;;;;;;;16.27;11.93;;;;;;;;;;5063296;28;20037;-61
2022/10/17 04:25:56;;;;;;;17.50;13.20;;;;;;;;;;5060027;28;20372;-62
2022/10/17 04:28:22;;;;;;;20.40;14.32;;;12.60;99.90;;;;;;5061016;28;20033;-61
2022/10/17 04:30:55;;;;;;;19.90;13.90;;;;;;;;;;5061652;28;20048;-62
2022/10/17 04:33:20;;;;;;;24.50;15.63;;;12.80;99.90;;;;;;5062782;28;20501;-61
2022/10/17 04:35:57;;;;;;;23.08;15.68;;;12.60;99.90;;;;;;5064723;28;20040;-61
2022/10/17 04:38:23;;;;;;;22.08;14.77;;;;;;;;;;5061418;28;20111;-61
2022/10/17 04:40:49;;;;;;;21.15;15.38;;;13.60;99.90;;;;;;5061029;28;20532;-61
2022/10/17 04:43:15;;;;;;;19.75;14.05;;;;;;;;;;5064297;28;20056;-61
2022/10/17 04:45:41;;;;;;;24.52;17.00;;;12.60;99.90;;;;;;5034522;28;20037;-60
2022/10/17 04:48:07;;;;;;;22.60;15.73;;;13.10;99.90;;;;;;5053289;28;20449;-61
2022/10/17 04:50:32;;;;;;;24.13;16.98;;;12.90;99.90;;;;;;5058186;28;20033;-60
2022/10/17 04:52:58;;;;;;;22.48;17.08;;;13.10;99.90;;;;;;5045720;28;20514;-61
2022/10/17 04:55:24;;;;;;;25.40;18.13;;;12.90;99.90;;;;;;5062398;28;20459;-60
2022/10/17 04:57:50;;;;;;;24.83;17.38;;;13.20;99.90;;;;;;5059191;28;20037;-61
2022/10/17 05:00:16;;;;;;;25.75;18.65;;;13.20;99.90;;;;;;5053015;28;20280;-61
2022/10/17 05:02:42;;;;;;;26.05;18.67;;;13.30;99.90;;;;;;5035164;28;20076;-61
2022/10/17 05:05:08;;;;;;;24.60;17.55;;;13.10;99.90;;;;;;5060414;28;20075;-61
2022/10/17 05:07:33;;;;;;;24.45;16.73;;;13.40;99.90;;;;;;5056771;28;20041;-60
2022/10/17 05:09:59;;;;;;;23.65;16.98;;;13.80;99.90;;;;;;5059049;28;20029;-60
2022/10/17 05:12:25;;;;;;;27.02;17.70;;;;;;;;;;5058162;28;20533;-61
2022/10/17 05:14:51;;;;;;;25.75;18.77;;;13.30;99.90;;;;;;5059100;28;20123;-61
2022/10/17 05:17:16;;;;;;;28.45;17.83;;;13.10;99.90;;;;;;5048843;28;20075;-61
2022/10/17 05:19:42;;;;;;;26.20;18.20;;;;;;;;;;5040950;28;20055;-60
2022/10/17 05:22:08;;;;;;;24.75;17.70;;;13.40;99.90;;;;;;5064921;28;20044;-61
2022/10/17 05:24:34;;;;;;;27.10;19.15;;;13.60;99.90;;;;;;5045304;28;20060;-61
2022/10/17 05:26:59;;;;;;;25.20;18.27;;;13.30;99.90;;;;;;5063730;28;20119;-60
2022/10/17 05:29:25;;;;;;;26.20;18.40;;;13.40;99.90;;;;;;5061341;28;20033;-61
2022/10/17 05:31:50;;;;;;;26.42;17.65;;;13.40;99.90;;;;;;5060153;28;20037;-61
2022/10/17 05:34:16;;;;;;;25.30;18.23;;;13.70;99.90;;;;;;5069799;28;20062;-61
2022/10/17 05:36:42;;;;;;;22.33;16.55;;;14.20;99.90;;;;;;5038682;28;20033;-61
2022/10/17 05:39:07;;;;;;;27.35;18.42;;;14.20;99.90;;;;;;5066451;28;20125;-61
2022/10/17 05:41:33;;;;;;;28.80;18.88;;;13.60;99.90;;;;;;5058134;28;20045;-61
2022/10/17 05:43:59;;;;;;;24.75;17.73;;;13.60;99.90;;;;;;5068323;28;20033;-61
2022/10/17 05:46:25;;;;;;;25.98;18.02;;;13.80;99.90;;;;;;5062303;28;20043;-62
2022/10/17 05:48:51;;;;;;;27.50;18.35;;;13.80;99.90;;;;;;5042735;28;20036;-61
2022/10/17 05:51:17;;;;;;;24.88;16.77;;;13.30;99.90;;;;;;5069729;28;20417;-61
2022/10/17 05:53:42;;;;;;;24.67;18.17;;;13.30;99.90;;;;;;5059709;28;20032;-60
2022/10/17 05:56:11;;;;;;;25.88;17.15;;;13.60;99.90;;;;;;5068723;28;20040;-60
2022/10/17 05:58:41;;;;;;;26.38;17.88;;;14.40;99.90;;;;;;5057257;28;20040;-60
2022/10/17 06:01:07;;;;;;;27.13;18.55;;;13.90;99.90;;;;;;5067969;28;20051;-59
2022/10/17 06:03:33;;;;;;;25.13;16.90;;;14.60;99.90;;;;;;5060164;28;20028;-61
2022/10/17 06:06:08;;;;;;;24.77;17.42;;;13.40;99.90;;;;;;5056757;28;20060;-59
2022/10/17 06:08:33;;;;;;;;;;;;;;;;;;5053850;28;20572;-61
2022/10/17 06:11:00;;;;;;;24.45;16.85;;;;;;;;;;5055582;28;20016;-59
2022/10/17 06:13:26;;;;;;;23.23;16.27;;;14.40;99.90;;;;;;5050319;28;20086;-61
2022/10/17 06:15:51;;;;;;;23.50;16.60;;;14.30;99.90;;;;;;5056814;28;20493;-61
2022/10/17 06:18:17;;;;;;;21.85;15.55;;;;;;;;;;5062068;28;20537;-60
2022/10/17 06:20:43;;;;;;;21.63;15.95;;;13.90;99.90;;;;;;5059266;28;20049;-61
2022/10/17 06:23:09;;;;;;;21.45;14.48;;;13.70;99.90;;;;;;5066644;28;20060;-60
2022/10/17 06:25:34;;;;;;;24.27;15.20;;;14.40;99.90;;;;;;5071289;28;20036;-59
2022/10/17 06:28:00;;;;;;;20.40;15.63;;;14.40;99.90;;;;;;5067897;28;20033;-61
2022/10/17 06:30:26;;;;;;;22.40;15.55;;;14.50;99.90;;;;;;5063781;28;20120;-61
2022/10/17 06:32:52;;;;;;;21.02;14.20;;;14.30;99.90;;;;;;5054637;28;20033;-61
2022/10/17 06:35:19;;;;;;;19.83;14.60;;;14.90;99.90;;;;;;5056851;28;20056;-60
2022/10/17 06:37:44;;;;;;;23.63;15.00;;;14.70;99.90;;;;;;5053921;28;20552;-60
2022/10/17 06:40:11;;;;;;;22.20;14.43;;;13.90;99.90;;;;;;5055958;28;20037;-60
2022/10/17 06:42:37;;;;;;;19.05;14.43;;;14.90;99.90;;;;;;5058317;28;20037;-60
2022/10/17 06:45:04;;;;;;;18.15;14.15;;;14.30;99.90;;;;;;5063599;28;20035;-63
2022/10/17 06:47:30;;;;;;;26.02;16.25;;;14.40;99.90;;;;;;5062525;28;20048;-60
2022/10/17 06:49:55;;;;;;;19.92;14.35;;;14.40;99.90;;;;;;5054314;28;20029;-60
2022/10/17 06:52:21;;;;;;;19.42;14.43;;;14.50;99.90;;;;;;5057374;28;20037;-60
2022/10/17 06:54:47;;;;;;;21.88;15.07;;;14.50;99.90;;;;;;5053856;28;20127;-60
2022/10/17 06:57:13;;;;;;;21.40;15.00;;;;;;;;;;5053999;28;20041;-63
2022/10/17 06:59:38;;;;;;;20.45;14.63;;;14.50;99.90;;;;;;5052414;28;20498;-61
2022/10/17 07:02:05;;;;;;;20.50;14.40;;;14.60;99.90;;;;;;5054576;28;20102;-61
2022/10/17 07:04:31;;;;;;;17.15;12.80;;;14.60;99.90;;;;;;5058708;28;20076;-61
2022/10/17 07:06:56;;;;;;;20.80;14.23;;;14.40;99.90;;;;;;5054423;28;20155;-60
2022/10/17 07:09:23;;;;;;;20.27;13.98;;;15.00;99.90;;;;;;5070167;28;20028;-61
2022/10/17 07:11:48;;;;;;;19.02;14.05;;;15.00;99.90;;;;;;5058946;28;20041;-60
2022/10/17 07:14:14;;;;;;;19.75;13.60;;;15.00;99.90;;;;;;5055479;28;20037;-60
2022/10/17 07:16:39;;;;;;;17.35;11.95;;;15.00;99.90;;;;;;5040929;28;20053;-61
2022/10/17 07:19:05;;;;;;;19.35;14.05;;;15.00;99.90;;;;;;5052112;28;20040;-61
2022/10/17 07:21:31;;;;;;;17.58;12.30;;;14.80;99.90;;;;;;5059297;28;20041;-61
2022/10/17 07:23:57;;;;;;;18.27;12.30;;;15.00;99.90;;;;;;5055115;28;20032;-61
2022/10/17 07:26:23;;;;;;;16.50;11.88;;;15.40;99.90;;;;;;5061551;28;20513;-60
2022/10/17 07:28:51;;;;;;;15.95;11.95;;;;;;;;;;5052965;28;20206;-62
2022/10/17 07:31:18;;;;;;;14.65;10.55;;;;;;;;;;5058242;28;20033;-61
2022/10/17 07:33:45;;;;;;;19.58;12.55;;;15.10;99.90;;;;;;5057382;28;20041;-60
2022/10/17 07:36:11;;;;;;;16.65;12.73;;;15.40;99.90;;;;;;5058845;28;20112;-61
2022/10/17 07:38:38;;;;;;;15.52;11.32;;;15.40;99.90;;;;;;5061957;28;20029;-61
2022/10/17 07:41:06;;;;;;;16.67;11.88;;;15.80;99.90;;;;;;5053927;28;20032;-61
2022/10/17 07:43:32;;;;;;;14.77;10.82;;;15.60;99.90;;;;;;5061195;28;20508;-62
2022/10/17 07:45:59;;;;;;;20.23;11.55;;;15.50;99.90;;;;;;5035547;28;20045;-61
2022/10/17 07:48:25;;;;;;;14.80;10.70;;;15.40;99.90;;;;;;5062732;28;20032;-61
2022/10/17 07:50:51;;;;;;;15.77;10.27;;;;;;;;;;5052680;28;20102;-61
2022/10/17 07:53:17;;;;;;;14.10;10.15;;;15.10;99.90;;;;;;5053849;28;20298;-61
2022/10/17 07:55:45;;;;;;;14.38;11.10;;;16.30;99.90;;;;;;5051459;28;20045;-62
2022/10/17 07:58:11;;;;;;;18.98;10.30;;;15.70;99.90;;;;;;5053884;28;20489;-61
2022/10/17 08:00:36;;;;;;;14.02;10.23;;;16.30;99.90;;;;;;5054624;28;20116;-61
2022/10/17 08:03:03;;;;;;;15.68;10.43;;;16.10;99.90;;;;;;5067075;28;20439;-62
2022/10/17 08:05:30;;;;;;;15.40;9.75;;;;;;;;;;5048776;28;20046;-62
2022/10/17 08:07:56;;;;;;;13.35;10.15;;;15.90;99.90;;;;;;5050872;28;20067;-61
2022/10/17 08:10:26;;;;;;;16.98;9.93;;;15.90;99.90;;;;;;5040386;28;20037;-62
2022/10/17 08:12:53;;;;;;;14.20;10.75;;;16.60;99.90;;;;;;5057615;28;20494;-61
2022/10/17 08:15:19;;;;;;;14.68;10.55;;;16.00;99.90;;;;;;5060315;28;20033;-60
2022/10/17 08:17:44;;;;;;;15.60;10.63;;;16.00;99.90;;;;;;5070596;28;20299;-62
2022/10/17 08:20:10;;;;;;;14.13;10.30;;;15.70;99.90;;;;;;5066919;28;20048;-62
2022/10/17 08:22:36;;;;;;;13.00;9.65;;;15.80;99.90;;;;;;5064503;28;20041;-62
2022/10/17 08:25:02;;;;;;;15.02;10.45;;;16.10;99.90;;;;;;5065151;28;20471;-60
2022/10/17 08:27:27;;;;;;;12.77;9.93;;;15.70;99.90;;;;;;5062872;28;20047;-60
2022/10/17 08:29:54;;;;;;;14.38;9.35;;;16.40;99.90;;;;;;5119219;22;20501;-58
2022/10/17 08:32:21;;;;;;;15.18;10.48;;;16.30;99.90;;;;;;5088519;28;20074;-56
2022/10/17 08:34:46;;;;;;;12.45;9.25;;;16.80;99.90;;;;;;5084658;28;20051;-58
2022/10/17 08:37:12;;;;;;;16.30;9.80;;;16.90;99.90;;;;;;5072775;28;20028;-57
2022/10/17 08:39:40;;;;;;;13.77;9.48;;;16.00;99.90;;;;;;5067565;28;20090;-57
2022/10/17 08:42:22;;;;;;;18.00;10.55;;;15.60;99.90;;;;;;5066523;28;20033;-59
2022/10/17 08:45:32;;;;;;;14.75;9.05;;;16.40;99.90;;;;;;5069911;28;20044;-57
2022/10/17 08:48:04;;;;;;;14.93;10.15;;;16.60;99.90;;;;;;4973222;28;20419;-59
2022/10/17 08:50:39;;;;;;;13.63;8.93;;;16.20;99.90;;;;;;4987092;28;20097;-58
2022/10/17 08:53:18;;;;;;;14.23;9.90;;;16.70;99.90;;;;;;5034063;28;20044;-58
2022/10/17 08:55:50;;;;;;;12.38;9.13;;;16.00;99.90;;;;;;5061162;28;20044;-58
2022/10/17 08:58:28;;;;;;;14.90;9.40;;;16.30;99.90;;;;;;5072772;28;20090;-58
2022/10/17 09:01:19;;;;;;;13.18;9.68;;;16.40;99.90;;;;;;5055741;22;20303;-62
2022/10/17 09:03:48;;;;;;;15.43;9.77;;;;;;;;;;5046296;28;20033;-62
2022/10/17 09:06:45;;;;;;;15.20;10.73;;;16.70;99.90;;;;;;5063047;28;20037;-63
2022/10/17 09:09:30;;;;;;;15.73;11.57;;;16.30;99.90;;;;;;5027881;28;20046;-62
2022/10/17 09:12:13;;;;;;;15.30;11.05;;;16.20;99.90;;;;;;5062870;28;20053;-62
2022/10/17 09:15:01;;;;;;;17.58;11.52;;;16.00;99.90;;;;;;5067697;28;20116;-62
2022/10/17 09:18:01;;;;;;;19.00;11.85;;;15.40;99.90;;;;;;5054683;28;20502;-62
2022/10/17 09:20:38;;;;;;;20.67;13.00;;;15.90;99.90;;;;;;5066584;28;20064;-62
2022/10/17 09:23:17;;;;;;;19.83;12.80;;;15.70;99.90;;;;;;5045951;28;20521;-62
2022/10/17 09:25:44;;;;;;;17.77;12.93;;;;;;;;;;5045666;28;20036;-63
2022/10/17 09:28:13;;;;;;;20.23;13.57;;;;;;;;;;5041239;28;20551;-62
2022/10/17 09:30:43;;;;;;;23.10;13.80;;;16.30;99.90;;;;;;5056678;28;20447;-64
2022/10/17 09:33:17;;;;;;;19.30;13.75;;;;;;;;;;5065495;28;20521;-63
2022/10/17 09:35:44;;;;;;;19.25;13.38;;;16.50;99.90;;;;;;5066972;28;20086;-65
2022/10/17 09:38:19;;;;;;;25.80;14.05;;;15.50;99.90;;;;;;5029820;28;20395;-64
2022/10/17 09:40:53;;;;;;;23.27;15.23;;;16.40;99.90;;;;;;5061893;28;20466;-65
2022/10/17 09:43:19;;;;;;;20.20;14.97;;;15.70;99.90;;;;;;5042249;28;20468;-65
2022/10/17 09:45:59;;;;;;;22.00;13.98;;;;;;;;;;5041447;28;20116;-65
2022/10/17 09:48:46;;;;;;;21.98;13.23;;;15.40;99.90;;;;;;5061575;28;20043;-66
2022/10/17 09:51:13;;;;;;;24.27;16.15;;;15.20;99.90;;;;;;5060800;28;20087;-67
2022/10/17 09:53:44;;;;;;;22.73;15.10;;;;;;;;;;5060640;28;20043;-67
2022/10/17 09:56:15;;;;;;;23.95;15.95;;;15.30;99.90;;;;;;5061260;28;20075;-66
2022/10/17 09:58:59;;;;;;;28.27;15.77;;;15.80;99.90;;;;;;5055976;28;20117;-68
2022/10/17 10:01:29;;;;;;;23.92;15.50;;;15.20;99.90;;;;;;5059057;28;20037;-71
2022/10/17 10:04:08;;;;;;;28.88;16.95;;;15.60;99.90;;;;;;5051040;28;20037;-69
2022/10/17 10:06:34;;;;;;;30.17;18.52;;;15.60;99.90;;;;;;5058490;28;20040;-68
2022/10/17 10:09:04;;;;;;;22.20;15.18;;;15.80;99.90;;;;;;5064307;28;20037;-68
2022/10/17 10:11:53;;;;;;;25.98;16.83;;;16.00;99.90;;;;;;5049688;28;20900;-68
2022/10/17 10:14:24;;;;;;;23.60;17.17;;;;;;;;;;5047617;28;20055;-68
2022/10/17 10:16:52;;;;;;;32.38;19.75;;;15.80;99.90;;;;;;5050459;28;20056;-68
2022/10/17 10:19:31;;;;;;;31.98;18.98;;;15.60;99.90;;;;;;5047762;28;20036;-68
2022/10/17 10:22:14;;;;;;;25.80;16.02;;;15.40;99.90;;;;;;5033160;28;20041;-68
2022/10/17 10:24:40;;;;;;;34.42;19.92;;;15.80;99.90;;;;;;5058159;28;20063;-68
2022/10/17 10:27:13;;;;;;;28.05;17.05;;;15.70;99.90;;;;;;5058190;28;20446;-67
2022/10/17 10:29:42;;;;;;;28.95;18.73;;;16.30;99.90;;;;;;5044369;28;20494;-68
2022/10/17 10:32:33;;;;;;;38.00;21.42;;;15.30;99.90;;;;;;5057156;28;20028;-68
2022/10/17 10:35:06;;;;;;;33.55;20.17;;;15.70;99.90;;;;;;5057981;28;20513;-67
2022/10/17 10:37:38;;;;;;;25.85;18.02;;;15.60;99.90;;;;;;5060861;28;20097;-68
2022/10/17 10:40:14;;;;;;;28.10;18.48;;;16.30;99.90;;;;;;5038595;28;20048;-67
2022/10/17 10:42:40;;;;;;;27.10;17.58;;;16.60;99.90;;;;;;5051947;28;20387;-67
2022/10/17 10:45:27;;;;;;;30.73;18.50;;;16.00;99.90;;;;;;5053795;28;20036;-68
2022/10/17 10:47:54;;;;;;;25.17;17.50;;;16.60;99.90;;;;;;5047583;28;20033;-67
2022/10/17 10:50:25;;;;;;;26.52;17.35;;;15.40;99.90;;;;;;5048458;28;20033;-67
2022/10/17 10:52:57;;;;;;;25.10;17.77;;;15.60;99.90;;;;;;5050854;28;20452;-67
2022/10/17 10:55:29;;;;;;;27.48;17.65;;;16.10;99.90;;;;;;5057912;28;20037;-67
2022/10/17 10:58:01;;;;;;;26.10;17.60;;;16.00;99.90;;;;;;5053613;28;20101;-67
2022/10/17 11:00:31;;;;;;;25.38;16.83;;;16.10;99.90;;;;;;5057884;28;20036;-67
2022/10/17 11:03:18;;;;;;;26.83;16.98;;;;;;;;;;5049750;28;20269;-67
2022/10/17 11:05:52;;;;;;;26.83;18.08;;;16.20;99.90;;;;;;5058605;28;20531;-67
2022/10/17 11:08:26;;;;;;;26.52;16.85;;;15.30;99.90;;;;;;5023371;28;20032;-67
2022/10/17 11:11:23;;;;;;;30.90;17.53;;;15.90;99.90;;;;;;5064415;28;20115;-67
2022/10/17 11:13:57;;;;;;;27.08;18.02;;;16.50;99.90;;;;;;5069840;28;20119;-67
2022/10/17 11:16:50;;;;;;;27.08;17.55;;;15.70;99.90;;;;;;5040885;28;20506;-67
2022/10/17 11:19:34;;;;;;;27.65;17.33;;;15.70;99.90;;;;;;5062744;28;20478;-68
2022/10/17 11:22:20;;;;;;;24.23;16.33;;;16.60;99.90;;;;;;5058755;28;20386;-68
2022/10/17 11:24:59;;;;;;;28.02;18.50;;;16.40;99.90;;;;;;5054633;28;20059;-67
2022/10/17 11:27:28;;;;;;;30.02;17.88;;;16.20;99.90;;;;;;5063290;28;20036;-67
2022/10/17 11:29:59;;;;;;;22.65;15.10;;;15.40;99.90;;;;;;5068562;28;20081;-68
2022/10/17 11:33:06;;;;;;;26.70;15.43;;;16.30;99.90;;;;;;5065825;28;20037;-67
2022/10/17 11:35:54;;;;;;;20.08;13.82;;;16.00;99.90;;;;;;5046379;28;20413;-68
2022/10/17 11:38:35;;;;;;;23.13;14.70;;;;;;;;;;5062164;28;20028;-68
2022/10/17 11:41:07;;;;;;;17.30;11.65;;;15.80;99.90;;;;;;5053845;28;20044;-67
2022/10/17 11:43:49;;;;;;;21.77;14.98;;;15.90;99.90;;;;;;5064494;28;20091;-67
2022/10/17 11:46:22;;;;;;;29.58;16.13;;;16.50;99.90;;;;;;5058888;28;20037;-67
2022/10/17 11:48:50;;;;;;;20.33;14.32;;;15.30;99.90;;;;;;5042199;28;20041;-67
2022/10/17 11:51:19;;;;;;;20.80;12.98;;;15.40;99.90;;;;;;5060083;28;20059;-67
2022/10/17 11:54:14;;;;;;;20.65;12.90;;;16.20;99.90;;;;;;5064291;28;20040;-67
2022/10/17 11:56:53;;;;;;;20.50;13.35;;;16.00;99.90;;;;;;5063114;28;20044;-67
2022/10/17 11:59:41;;;;;;;22.92;12.27;;;16.60;99.90;;;;;;5064925;28;20025;-67
2022/10/17 12:02:19;;;;;;;18.90;13.30;;;16.30;99.90;;;;;;5060175;28;20558;-67
2022/10/17 12:05:00;;;;;;;20.70;13.65;;;16.00;99.90;;;;;;5039767;28;20056;-68
2022/10/17 12:07:54;;;;;;;19.67;12.20;;;;;;;;;;5054716;28;20045;-67
2022/10/17 12:10:38;;;;;;;21.52;13.38;;;;;;;;;;5063096;28;20274;-67
2022/10/17 12:13:31;;;;;;;19.63;13.10;;;16.40;99.90;;;;;;5061574;28;20090;-67
2022/10/17 12:16:19;;;;;;;21.98;13.60;;;15.40;99.90;;;;;;5059936;28;20093;-66
2022/10/17 12:19:01;;;;;;;19.05;13.55;;;16.10;99.90;;;;;;5058211;28;20048;-66
2022/10/17 12:22:16;;;;;;;21.20;14.10;;;15.60;99.90;;;;;;5059769;28;20400;-66
2022/10/17 12:24:54;;;;;;;24.83;13.85;;;16.30;99.90;;;;;;5037776;28;20342;-67
2022/10/17 12:27:46;;;;;;;21.33;13.70;;;15.80;99.90;;;;;;5062325;28;20035;-67
2022/10/17 12:30:26;;;;;;;18.25;12.02;;;15.70;99.90;;;;;;5037394;28;20068;-67
2022/10/17 12:33:22;;;;;;;19.77;13.65;;;16.10;99.90;;;;;;5052624;28;20040;-67
2022/10/17 12:36:12;;;;;;;20.75;12.65;;;;;;;;;;5053320;28;20087;-67
2022/10/17 12:38:43;;;;;;;22.20;14.18;;;15.90;99.90;;;;;;5042020;28;20055;-67
2022/10/17 12:41:33;;;;;;;20.00;13.45;;;16.60;99.90;;;;;;5059169;28;20068;-67
2022/10/17 12:43:59;;;;;;;22.15;13.88;;;15.90;99.90;;;;;;5055332;28;20040;-67
2022/10/17 12:46:44;;;;;;;18.23;12.55;;;;;;;;;;5059220;28;20044;-67
2022/10/17 12:49:35;;;;;;;21.88;12.07;;;16.00;99.90;;;;;;5055967;28;20033;-67
2022/10/17 12:52:19;;;;;;;18.45;11.73;;;15.50;99.90;;;;;;5061149;28;20063;-66
2022/10/17 12:54:51;;;;;;;19.83;12.32;;;16.00;99.90;;;;;;5064886;28;20119;-67
2022/10/17 12:57:20;;;;;;;17.45;10.45;;;;;;;;;;5056480;28;20133;-66
2022/10/17 12:59:51;;;;;;;16.83;10.68;;;15.40;99.90;;;;;;5062676;28;20513;-67
2022/10/17 13:02:25;;;;;;;17.80;10.82;;;16.60;99.90;;;;;;5058505;28;20041;-68
2022/10/17 13:04:52;;;;;;;;;;;;;;;;;;5066619;28;20094;-67
2022/10/17 13:07:20;;;;;;;17.92;9.75;;;16.30;99.90;;;;;;5059800;28;19927;-67
2022/10/17 13:09:49;;;;;;;13.63;7.97;;;15.70;99.90;;;;;;5054829;28;20080;-67
2022/10/17 13:12:22;;;;;;;16.83;10.15;;;15.50;99.90;;;;;;5043407;28;20054;-67